Time,TemperatureF,DewpointF,PressureIn,WindDirection,WindDirectionDegrees,WindSpeedMPH,WindSpeedGustMPH,Humidity,HourlyPrecipIn,Conditions,Clouds,dailyrainin,SoftwareType,DateUTC
2013-05-20 00:00:00,31.8,18.7,30.63,North,0,0.0,0.0,58,0.00,CLR,,0.00,WeatherDisplay:10.37,2013-05-20 08:00:00,
2013-05-20 00:05:00,31.6,20.8,30.63,North,0,0.0,0.0,64,0.00,CLR,,0.00,WeatherDisplay:10.37,2013-05-20 08:05:00,
2013-05-20 00:10:00,30.3,18.8,30.63,North,0,0.0,0.0,62,0.00,CLR,,0.00,WeatherDisplay:10.37,2013-05-20 08:10:00,
2013-05-20 00:15:00,30.0,17.0,30.63,North,0,0.0,0.0,58,0.00,CLR,,0.00,WeatherDisplay:10.37,2013-05-20 08:15:00,
2013-05-20 00:25:00,30.0,18.9,30.64,North,0,0.0,0.0,63,0.00,CLR,,0.00,WeatherDisplay:10.37,2013-05-20 08:25:00,
2013-05-20 00:30:00,30.4,21.4,30.64,North,0,0.0,0.0,69,0.00,CLR,,0.00,WeatherDisplay:10.37,2013-05-20 08:30:00,
2013-05-20 00:40:00,31.8,21.0,30.64,North,0,0.0,0.0,64,0.00,CLR,,0.00,WeatherDisplay:10.37,2013-05-20 08:40:00,
2013-05-20 00:45:00,31.6,19.3,30.64,North,0,0.0,0.0,60,0.00,CLR,,0.00,WeatherDisplay:10.37,2013-05-20 08:45:00,
2013-05-20 00:50:00,30.6,18.7,30.65,North,0,0.0,0.0,61,0.00,CLR,,0.00,WeatherDisplay:10.37,2013-05-20 08:50:00,
2013-05-20 00:55:00,30.0,17.8,30.65,North,0,0.0,0.0,60,0.00,CLR,,0.00,WeatherDisplay:10.37,2013-05-20 08:55:00,
2013-05-20 01:00:00,29.8,17.6,30.65,North,0,0.0,0.0,60,0.00,CLR,,0.00,WeatherDisplay:10.37,2013-05-20 09:00:00,
2013-05-20 01:15:00,29.5,18.1,30.65,North,0,0.0,0.0,62,0.00,CLR,,0.00,WeatherDisplay:10.37,2013-05-20 09:15:00,
2013-05-20 01:25:00,30.0,18.9,30.65,North,0,0.0,0.0,63,0.00,CLR,,0.00,WeatherDisplay:10.37,2013-05-20 09:25:00,
2013-05-20 01:30:00,30.3,18.9,30.65,North,0,0.0,0.0,62,0.00,CLR,,0.00,WeatherDisplay:10.37,2013-05-20 09:30:00,
2013-05-20 01:40:00,29.6,21.3,30.65,North,0,0.0,0.0,71,0.00,CLR,,0.00,WeatherDisplay:10.37,2013-05-20 09:40:00,
2013-05-20 01:45:00,29.0,19.7,30.65,North,0,0.0,0.0,68,0.00,CLR,,0.00,WeatherDisplay:10.37,2013-05-20 09:45:00,
2013-05-20 01:50:00,29.0,17.6,30.65,North,0,0.0,0.0,62,0.00,CLR,,0.00,WeatherDisplay:10.37,2013-05-20 09:50:00,
2013-05-20 01:55:00,28.7,17.3,30.66,North,0,0.0,0.0,62,0.00,CLR,,0.00,WeatherDisplay:10.37,2013-05-20 09:55:00,
2013-05-20 02:00:00,27.9,16.5,30.65,North,0,0.0,0.0,62,0.00,CLR,,0.00,WeatherDisplay:10.37,2013-05-20 10:00:00,
2013-05-20 02:05:00,27.7,17.1,30.66,North,0,0.0,0.0,64,0.00,CLR,,0.00,WeatherDisplay:10.37,2013-05-20 10:05:00,
2013-05-20 02:10:00,28.2,17.2,30.66,North,0,0.0,0.0,63,0.00,CLR,,0.00,WeatherDisplay:10.37,2013-05-20 10:10:00,
2013-05-20 02:15:00,28.6,15.7,30.66,North,0,0.0,0.0,58,0.00,CLR,,0.00,WeatherDisplay:10.37,2013-05-20 10:15:00,
2013-05-20 02:20:00,28.4,16.6,30.66,North,0,0.0,0.0,61,0.00,CLR,,0.00,WeatherDisplay:10.37,2013-05-20 10:20:00,
2013-05-20 02:25:00,28.2,12.8,30.66,North,0,0.0,0.0,52,0.00,CLR,,0.00,WeatherDisplay:10.37,2013-05-20 10:25:00,
2013-05-20 02:30:00,28.2,16.9,30.67,North,0,0.0,0.0,62,0.00,CLR,,0.00,WeatherDisplay:10.37,2013-05-20 10:30:00,
2013-05-20 02:35:00,28.4,16.7,30.67,North,0,0.0,0.0,61,0.00,CLR,,0.00,WeatherDisplay:10.37,2013-05-20 10:35:00,
2013-05-20 02:40:00,28.2,18.0,30.67,North,0,0.0,0.0,65,0.00,CLR,,0.00,WeatherDisplay:10.37,2013-05-20 10:40:00,
2013-05-20 02:45:00,28.0,16.2,30.67,North,0,0.0,0.0,61,0.00,CLR,,0.00,WeatherDisplay:10.37,2013-05-20 10:45:00,
2013-05-20 02:55:00,27.0,16.4,30.67,North,0,0.0,0.0,64,0.00,CLR,,0.00,WeatherDisplay:10.37,2013-05-20 10:55:00,
2013-05-20 03:00:00,26.8,16.6,30.67,North,0,0.0,0.0,65,0.00,CLR,,0.00,WeatherDisplay:10.37,2013-05-20 11:00:00,
2013-05-20 03:10:00,27.5,15.4,30.67,North,0,0.0,0.0,60,0.00,CLR,,0.00,WeatherDisplay:10.37,2013-05-20 11:10:00,
2013-05-20 03:15:00,27.3,15.2,30.67,North,0,0.0,0.0,60,0.00,CLR,,0.00,WeatherDisplay:10.37,2013-05-20 11:15:00,
2013-05-20 03:25:00,26.3,15.1,30.68,North,0,0.0,0.0,62,0.00,CLR,,0.00,WeatherDisplay:10.37,2013-05-20 11:25:00,
2013-05-20 03:30:00,26.0,15.1,30.68,North,0,0.0,0.0,63,0.00,CLR,,0.00,WeatherDisplay:10.37,2013-05-20 11:30:00,
2013-05-20 03:35:00,26.4,16.6,30.68,North,0,0.0,0.0,66,0.00,CLR,,0.00,WeatherDisplay:10.37,2013-05-20 11:35:00,
2013-05-20 03:40:00,27.0,16.4,30.68,North,0,0.0,0.0,64,0.00,CLR,,0.00,WeatherDisplay:10.37,2013-05-20 11:40:00,
2013-05-20 03:45:00,27.3,16.7,30.68,North,0,0.0,0.0,64,0.00,CLR,,0.00,WeatherDisplay:10.37,2013-05-20 11:45:00,
2013-05-20 03:55:00,26.7,17.6,30.68,North,0,0.0,0.0,68,0.00,CLR,,0.00,WeatherDisplay:10.37,2013-05-20 11:55:00,
2013-05-20 04:00:00,26.1,15.9,30.68,North,0,0.0,0.0,65,0.00,CLR,,0.00,WeatherDisplay:10.37,2013-05-20 12:00:00,
2013-05-20 04:10:00,25.3,15.5,30.69,North,0,0.0,0.0,66,0.00,CLR,,0.00,WeatherDisplay:10.37,2013-05-20 12:10:00,
2013-05-20 04:15:00,25.0,15.2,30.69,North,0,0.0,0.0,66,0.00,CLR,,0.00,WeatherDisplay:10.37,2013-05-20 12:15:00,
2013-05-20 04:25:00,25.0,13.8,30.69,North,0,0.0,0.0,62,0.00,CLR,,0.00,WeatherDisplay:10.37,2013-05-20 12:25:00,
2013-05-20 04:30:00,24.8,15.4,30.69,North,0,0.0,0.0,67,0.00,CLR,,0.00,WeatherDisplay:10.37,2013-05-20 12:30:00,
2013-05-20 04:40:00,24.6,14.9,30.69,North,0,0.0,0.0,66,0.00,CLR,,0.00,WeatherDisplay:10.37,2013-05-20 12:40:00,
2013-05-20 04:45:00,25.0,15.5,30.69,North,0,0.0,0.0,67,0.00,CLR,,0.00,WeatherDisplay:10.37,2013-05-20 12:45:00,
2013-05-20 04:55:00,25.9,16.8,30.69,North,0,0.0,0.0,68,0.00,CLR,,0.00,WeatherDisplay:10.37,2013-05-20 12:55:00,
2013-05-20 05:00:00,26.1,16.2,30.69,North,0,0.0,0.0,66,0.00,CLR,,0.00,WeatherDisplay:10.37,2013-05-20 13:00:00,
2013-05-20 05:10:00,26.2,18.0,30.69,North,0,0.0,0.0,71,0.00,CLR,,0.00,WeatherDisplay:10.37,2013-05-20 13:10:00,
2013-05-20 05:15:00,26.4,15.9,30.69,North,0,0.0,0.0,64,0.00,CLR,,0.00,WeatherDisplay:10.37,2013-05-20 13:15:00,
2013-05-20 05:25:00,26.7,16.1,30.69,North,0,0.0,0.0,64,0.00,CLR,,0.00,WeatherDisplay:10.37,2013-05-20 13:25:00,
2013-05-20 05:30:00,26.8,20.2,30.69,North,0,0.0,0.0,76,0.00,CLR,,0.00,WeatherDisplay:10.37,2013-05-20 13:30:00,
2013-05-20 05:40:00,27.5,19.3,30.69,North,0,0.0,0.0,71,0.00,CLR,,0.00,WeatherDisplay:10.37,2013-05-20 13:40:00,
2013-05-20 05:45:00,28.0,17.4,30.69,North,0,0.0,0.0,64,0.00,CLR,,0.00,WeatherDisplay:10.37,2013-05-20 13:45:00,
2013-05-20 05:55:00,28.2,17.2,30.69,North,0,0.0,0.0,63,0.00,CLR,,0.00,WeatherDisplay:10.37,2013-05-20 13:55:00,
2013-05-20 06:00:00,28.2,16.9,30.69,North,0,0.0,0.0,62,0.00,CLR,,0.00,WeatherDisplay:10.37,2013-05-20 14:00:00,
2013-05-20 06:10:00,28.6,17.2,30.69,North,0,0.0,0.0,62,0.00,CLR,,0.00,WeatherDisplay:10.37,2013-05-20 14:10:00,
2013-05-20 06:15:00,29.0,17.2,30.69,North,0,0.0,0.0,61,0.00,CLR,,0.00,WeatherDisplay:10.37,2013-05-20 14:15:00,
2013-05-20 06:25:00,30.1,18.6,30.69,North,0,0.0,0.0,62,0.00,CLR,,0.00,WeatherDisplay:10.37,2013-05-20 14:25:00,
2013-05-20 06:30:00,31.8,19.9,30.69,North,0,0.0,0.0,61,0.00,CLR,,0.00,WeatherDisplay:10.37,2013-05-20 14:30:00,
2013-05-20 06:40:00,33.4,18.6,30.69,North,0,0.0,0.0,54,0.00,CLR,,0.00,WeatherDisplay:10.37,2013-05-20 14:40:00,
2013-05-20 06:45:00,34.1,20.0,30.69,North,0,0.0,0.0,56,0.00,CLR,,0.00,WeatherDisplay:10.37,2013-05-20 14:45:00,
2013-05-20 06:50:00,34.0,21.9,30.69,North,0,0.0,0.0,61,0.00,CLR,,0.00,WeatherDisplay:10.37,2013-05-20 14:50:00,
2013-05-20 07:00:00,33.6,19.6,30.69,North,0,0.0,0.0,56,0.00,CLR,,0.00,WeatherDisplay:10.37,2013-05-20 15:00:00,
2013-05-20 07:10:00,35.0,18.7,30.69,North,0,0.0,0.0,51,0.00,CLR,,0.00,WeatherDisplay:10.37,2013-05-20 15:10:00,
2013-05-20 07:15:00,35.3,20.3,30.69,North,0,0.0,0.0,54,0.00,CLR,,0.00,WeatherDisplay:10.37,2013-05-20 15:15:00,
2013-05-20 07:20:00,35.6,20.1,30.69,North,0,0.0,0.0,53,0.00,CLR,,0.00,WeatherDisplay:10.37,2013-05-20 15:20:00,
2013-05-20 07:25:00,36.0,20.1,30.69,North,0,0.0,0.0,52,0.00,CLR,,0.00,WeatherDisplay:10.37,2013-05-20 15:25:00,
2013-05-20 07:30:00,36.9,19.5,30.69,North,0,0.0,0.0,49,0.00,CLR,,0.00,WeatherDisplay:10.37,2013-05-20 15:30:00,
2013-05-20 07:40:00,37.6,20.1,30.69,North,0,0.0,0.0,49,0.00,CLR,,0.00,WeatherDisplay:10.37,2013-05-20 15:40:00,
2013-05-20 07:45:00,38.1,19.1,30.69,North,0,0.0,0.0,46,0.00,CLR,,0.00,WeatherDisplay:10.37,2013-05-20 15:45:00,
2013-05-20 07:55:00,40.1,19.3,30.69,North,0,0.0,0.0,43,0.00,CLR,,0.00,WeatherDisplay:10.37,2013-05-20 15:55:00,
2013-05-20 08:00:00,40.8,26.8,30.69,North,0,0.0,0.0,57,0.00,CLR,,0.00,WeatherDisplay:10.37,2013-05-20 16:00:00,
2013-05-20 08:10:00,41.9,20.5,30.69,North,0,0.0,0.0,42,0.00,CLR,,0.00,WeatherDisplay:10.37,2013-05-20 16:10:00,
2013-05-20 08:15:00,42.5,22.1,30.69,North,0,0.0,0.0,44,0.00,CLR,,0.00,WeatherDisplay:10.37,2013-05-20 16:15:00,
2013-05-20 08:20:00,42.6,26.7,30.69,North,0,0.0,0.0,53,0.00,CLR,,0.00,WeatherDisplay:10.37,2013-05-20 16:20:00,
2013-05-20 08:30:00,43.3,22.3,30.69,North,0,0.0,0.0,43,0.00,CLR,,0.00,WeatherDisplay:10.37,2013-05-20 16:30:00,
2013-05-20 08:40:00,43.7,25.3,30.69,North,0,0.0,0.0,48,0.00,CLR,,0.00,WeatherDisplay:10.37,2013-05-20 16:40:00,
2013-05-20 08:45:00,43.5,21.3,30.69,North,0,0.0,0.0,41,0.00,CLR,,0.00,WeatherDisplay:10.37,2013-05-20 16:45:00,
2013-05-20 08:55:00,44.6,21.7,30.69,North,0,0.0,0.0,40,0.00,CLR,,0.00,WeatherDisplay:10.37,2013-05-20 16:55:00,
2013-05-20 09:00:00,44.6,20.5,30.69,North,0,0.0,0.0,38,0.00,CLR,,0.00,WeatherDisplay:10.37,2013-05-20 17:00:00,
2013-05-20 09:05:00,45.1,21.6,30.69,North,0,0.0,0.0,39,0.00,CLR,,0.00,WeatherDisplay:10.37,2013-05-20 17:05:00,
2013-05-20 09:10:00,45.4,21.2,30.69,North,0,0.0,0.0,38,0.00,CLR,,0.00,WeatherDisplay:10.37,2013-05-20 17:10:00,
2013-05-20 09:15:00,46.0,21.2,30.69,North,0,0.0,0.0,37,0.00,CLR,,0.00,WeatherDisplay:10.37,2013-05-20 17:15:00,
2013-05-20 09:20:00,46.6,22.3,30.69,North,0,0.0,0.0,38,0.00,CLR,,0.00,WeatherDisplay:10.37,2013-05-20 17:20:00,
2013-05-20 09:30:00,46.5,21.6,30.69,North,0,0.0,0.0,37,0.00,CLR,,0.00,WeatherDisplay:10.37,2013-05-20 17:30:00,
2013-05-20 09:40:00,46.2,20.7,30.69,North,0,0.0,0.0,36,0.00,CLR,,0.00,WeatherDisplay:10.37,2013-05-20 17:40:00,
2013-05-20 09:45:00,46.6,25.8,30.69,North,0,0.0,0.0,44,0.00,CLR,,0.00,WeatherDisplay:10.37,2013-05-20 17:45:00,
2013-05-20 09:50:00,46.9,20.6,30.69,North,0,0.0,0.0,35,0.00,CLR,,0.00,WeatherDisplay:10.37,2013-05-20 17:50:00,
2013-05-20 09:55:00,47.8,26.4,30.68,North,0,0.0,0.0,43,0.00,CLR,,0.00,WeatherDisplay:10.37,2013-05-20 17:55:00,
2013-05-20 10:00:00,48.2,23.8,30.68,North,0,0.0,0.0,38,0.00,CLR,,0.00,WeatherDisplay:10.37,2013-05-20 18:00:00,
2013-05-20 10:10:00,49.0,23.8,30.68,North,0,0.0,0.0,37,0.00,CLR,,0.00,WeatherDisplay:10.37,2013-05-20 18:10:00,
2013-05-20 10:15:00,49.3,23.4,30.68,North,0,0.0,0.0,36,0.00,CLR,,0.00,WeatherDisplay:10.37,2013-05-20 18:15:00,
2013-05-20 10:25:00,49.1,22.6,30.68,North,0,0.0,0.0,35,0.00,CLR,,0.00,WeatherDisplay:10.37,2013-05-20 18:25:00,
2013-05-20 10:30:00,49.1,23.3,30.67,North,0,0.0,0.0,36,0.00,CLR,,0.00,WeatherDisplay:10.37,2013-05-20 18:30:00,
2013-05-20 10:40:00,50.5,24.5,30.67,North,0,0.0,0.0,36,0.00,CLR,,0.00,WeatherDisplay:10.37,2013-05-20 18:40:00,
2013-05-20 10:45:00,50.9,23.5,30.67,North,0,0.0,0.0,34,0.00,CLR,,0.00,WeatherDisplay:10.37,2013-05-20 18:45:00,
2013-05-20 10:55:00,50.9,23.5,30.67,North,0,0.0,0.0,34,0.00,CLR,,0.00,WeatherDisplay:10.37,2013-05-20 18:55:00,
2013-05-20 11:00:00,51.4,23.3,30.67,North,0,0.0,0.0,33,0.00,CLR,,0.00,WeatherDisplay:10.37,2013-05-20 19:00:00,
2013-05-20 11:05:00,51.4,22.5,30.67,North,0,0.0,0.0,32,0.00,CLR,,0.00,WeatherDisplay:10.37,2013-05-20 19:05:00,
2013-05-20 11:10:00,51.1,23.7,30.67,North,0,0.0,0.0,34,0.00,CLR,,0.00,WeatherDisplay:10.37,2013-05-20 19:10:00,
2013-05-20 11:15:00,51.7,24.2,30.67,North,0,0.0,0.0,34,0.00,CLR,,0.00,WeatherDisplay:10.37,2013-05-20 19:15:00,
2013-05-20 11:20:00,52.9,24.5,30.67,North,0,0.0,0.0,33,0.00,CLR,,0.00,WeatherDisplay:10.37,2013-05-20 19:20:00,
2013-05-20 11:25:00,52.9,25.3,30.67,North,0,0.0,0.0,34,0.00,CLR,,0.00,WeatherDisplay:10.37,2013-05-20 19:25:00,
2013-05-20 11:30:00,52.3,22.6,30.67,North,0,0.0,0.0,31,0.00,CLR,,0.00,WeatherDisplay:10.37,2013-05-20 19:30:00,
2013-05-20 11:40:00,51.6,23.4,30.66,North,0,0.0,0.0,33,0.00,CLR,,0.00,WeatherDisplay:10.37,2013-05-20 19:40:00,
2013-05-20 11:45:00,52.0,24.4,30.66,North,0,0.0,0.0,34,0.00,CLR,,0.00,WeatherDisplay:10.37,2013-05-20 19:45:00,
2013-05-20 11:50:00,51.6,24.1,30.66,North,0,0.0,0.0,34,0.00,CLR,,0.00,WeatherDisplay:10.37,2013-05-20 19:50:00,
2013-05-20 11:55:00,51.5,21.8,30.65,North,0,0.0,0.0,31,0.00,CLR,,0.00,WeatherDisplay:10.37,2013-05-20 19:55:00,
2013-05-20 12:00:00,51.4,23.2,30.65,North,0,0.0,0.0,33,0.00,CLR,,0.00,WeatherDisplay:10.37,2013-05-20 20:00:00,
2013-05-20 12:10:00,52.0,23.0,30.65,North,0,0.0,0.0,32,0.00,CLR,,0.00,WeatherDisplay:10.37,2013-05-20 20:10:00,
2013-05-20 12:15:00,52.3,25.5,30.65,North,0,0.0,0.0,35,0.00,CLR,,0.00,WeatherDisplay:10.37,2013-05-20 20:15:00,
2013-05-20 12:25:00,52.5,23.5,30.65,North,0,0.0,0.0,32,0.00,CLR,,0.00,WeatherDisplay:10.37,2013-05-20 20:25:00,
2013-05-20 12:30:00,53.1,23.2,30.65,North,0,0.0,0.0,31,0.00,CLR,,0.00,WeatherDisplay:10.37,2013-05-20 20:30:00,
2013-05-20 12:35:00,53.1,20.8,30.64,North,0,0.0,0.0,28,0.00,CLR,,0.00,WeatherDisplay:10.37,2013-05-20 20:35:00,
2013-05-20 12:45:00,52.5,22.7,30.64,North,0,0.0,0.0,31,0.00,CLR,,0.00,WeatherDisplay:10.37,2013-05-20 20:45:00,
2013-05-20 12:55:00,52.5,22.7,30.64,North,0,0.0,0.0,31,0.00,CLR,,0.00,WeatherDisplay:10.37,2013-05-20 20:55:00,
2013-05-20 13:00:00,52.9,23.8,30.63,North,0,0.0,0.0,32,0.00,CLR,,0.00,WeatherDisplay:10.37,2013-05-20 21:00:00,
2013-05-20 13:05:00,53.7,23.8,30.63,North,0,0.0,0.0,31,0.00,CLR,,0.00,WeatherDisplay:10.37,2013-05-20 21:05:00,
2013-05-20 13:15:00,54.7,28.2,30.63,North,0,0.0,0.0,36,0.00,CLR,,0.00,WeatherDisplay:10.37,2013-05-20 21:15:00,
2013-05-20 13:25:00,55.2,24.2,30.63,North,0,0.0,0.0,30,0.00,CLR,,0.00,WeatherDisplay:10.37,2013-05-20 21:25:00,
2013-05-20 13:30:00,55.2,24.3,30.63,North,0,0.0,0.0,30,0.00,CLR,,0.00,WeatherDisplay:10.37,2013-05-20 21:30:00,
2013-05-20 13:35:00,54.7,24.6,30.63,North,0,0.0,0.0,31,0.00,CLR,,0.00,WeatherDisplay:10.37,2013-05-20 21:35:00,
2013-05-20 13:40:00,55.0,24.9,30.63,North,0,0.0,0.0,31,0.00,CLR,,0.00,WeatherDisplay:10.37,2013-05-20 21:40:00,
2013-05-20 13:45:00,55.2,26.6,30.62,North,0,0.0,0.0,33,0.00,CLR,,0.00,WeatherDisplay:10.37,2013-05-20 21:45:00,
2013-05-20 13:50:00,55.8,26.3,30.62,North,0,0.0,0.0,32,0.00,CLR,,0.00,WeatherDisplay:10.37,2013-05-20 21:50:00,
2013-05-20 14:00:00,55.9,24.1,30.62,North,0,0.0,0.0,29,0.00,CLR,,0.00,WeatherDisplay:10.37,2013-05-20 22:00:00,
2013-05-20 14:10:00,56.3,29.0,30.61,North,0,0.0,0.0,35,0.00,CLR,,0.00,WeatherDisplay:10.37,2013-05-20 22:10:00,
2013-05-20 14:15:00,56.3,26.0,30.61,North,0,0.0,0.0,31,0.00,CLR,,0.00,WeatherDisplay:10.37,2013-05-20 22:15:00,
2013-05-20 14:25:00,56.5,26.2,30.61,North,0,0.0,0.0,31,0.00,CLR,,0.00,WeatherDisplay:10.37,2013-05-20 22:25:00,
2013-05-20 14:30:00,56.8,24.9,30.61,North,0,0.0,0.0,29,0.00,CLR,,0.00,WeatherDisplay:10.37,2013-05-20 22:30:00,
2013-05-20 14:35:00,56.5,26.9,30.60,North,0,0.0,0.0,32,0.00,CLR,,0.00,WeatherDisplay:10.37,2013-05-20 22:35:00,
2013-05-20 14:40:00,57.0,26.6,30.60,North,0,0.0,0.0,31,0.00,CLR,,0.00,WeatherDisplay:10.37,2013-05-20 22:40:00,
2013-05-20 14:45:00,57.4,29.3,30.60,North,0,0.0,0.0,34,0.00,CLR,,0.00,WeatherDisplay:10.37,2013-05-20 22:45:00,
2013-05-20 14:50:00,57.8,33.6,30.60,North,0,0.0,0.0,40,0.00,CLR,,0.00,WeatherDisplay:10.37,2013-05-20 22:50:00,
2013-05-20 14:55:00,57.3,25.2,30.60,North,0,0.0,0.0,29,0.00,CLR,,0.00,WeatherDisplay:10.37,2013-05-20 22:55:00,
2013-05-20 15:00:00,56.8,25.7,30.60,North,0,0.0,0.0,30,0.00,CLR,,0.00,WeatherDisplay:10.37,2013-05-20 23:00:00,
2013-05-20 15:10:00,57.0,31.6,30.59,North,0,0.0,0.0,38,0.00,CLR,,0.00,WeatherDisplay:10.37,2013-05-20 23:10:00,
2013-05-20 15:15:00,58.0,27.5,30.59,North,0,0.0,0.0,31,0.00,CLR,,0.00,WeatherDisplay:10.37,2013-05-20 23:15:00,
2013-05-20 15:25:00,58.3,27.0,30.59,North,0,0.0,0.0,30,0.00,CLR,,0.00,WeatherDisplay:10.37,2013-05-20 23:25:00,
2013-05-20 15:30:00,58.5,28.7,30.59,North,0,0.0,0.0,32,0.00,CLR,,0.00,WeatherDisplay:10.37,2013-05-20 23:30:00,
2013-05-20 15:40:00,58.4,27.1,30.59,North,0,0.0,0.0,30,0.00,CLR,,0.00,WeatherDisplay:10.37,2013-05-20 23:40:00,
2013-05-20 15:45:00,57.7,25.6,30.59,North,0,0.0,0.0,29,0.00,CLR,,0.00,WeatherDisplay:10.37,2013-05-20 23:45:00,
2013-05-20 15:55:00,58.0,26.7,30.59,North,0,0.0,0.0,30,0.00,CLR,,0.00,WeatherDisplay:10.37,2013-05-20 23:55:00,
2013-05-20 16:00:00,58.0,25.9,30.58,North,0,0.0,0.0,29,0.00,CLR,,0.00,WeatherDisplay:10.37,2013-05-21 00:00:00,
2013-05-20 16:05:00,58.5,28.0,30.58,North,0,0.0,0.0,31,0.00,CLR,,0.00,WeatherDisplay:10.37,2013-05-21 00:05:00,
2013-05-20 16:15:00,59.9,29.1,30.58,North,0,0.0,0.0,31,0.00,CLR,,0.00,WeatherDisplay:10.37,2013-05-21 00:15:00,
2013-05-20 16:25:00,59.2,23.3,30.58,North,0,0.0,0.0,25,0.00,CLR,,0.00,WeatherDisplay:10.37,2013-05-21 00:25:00,
2013-05-20 16:30:00,59.3,24.3,30.58,North,0,0.0,0.0,26,0.00,CLR,,0.00,WeatherDisplay:10.37,2013-05-21 00:30:00,
2013-05-20 16:35:00,60.0,27.6,30.58,North,0,0.0,0.0,29,0.00,CLR,,0.00,WeatherDisplay:10.37,2013-05-21 00:35:00,
2013-05-20 16:45:00,59.8,27.5,30.57,North,0,0.0,0.0,29,0.00,CLR,,0.00,WeatherDisplay:10.37,2013-05-21 00:45:00,
2013-05-20 16:50:00,60.4,25.4,30.57,North,0,0.0,0.0,26,0.00,CLR,,0.00,WeatherDisplay:10.37,2013-05-21 00:50:00,
2013-05-20 16:55:00,60.6,26.4,30.57,North,0,0.0,0.0,27,0.00,CLR,,0.00,WeatherDisplay:10.37,2013-05-21 00:55:00,
2013-05-20 17:00:00,60.4,26.2,30.56,North,0,0.0,0.0,27,0.00,CLR,,0.00,WeatherDisplay:10.37,2013-05-21 01:00:00,
2013-05-20 17:05:00,60.5,26.3,30.56,North,0,0.0,0.0,27,0.00,CLR,,0.00,WeatherDisplay:10.37,2013-05-21 01:05:00,
2013-05-20 17:10:00,60.4,30.4,30.56,North,0,0.0,0.0,32,0.00,CLR,,0.00,WeatherDisplay:10.37,2013-05-21 01:10:00,
2013-05-20 17:15:00,60.8,26.6,30.56,North,0,0.0,0.0,27,0.00,CLR,,0.00,WeatherDisplay:10.37,2013-05-21 01:15:00,
2013-05-20 17:20:00,61.1,26.8,30.56,North,0,0.0,0.0,27,0.00,CLR,,0.00,WeatherDisplay:10.37,2013-05-21 01:20:00,
2013-05-20 17:25:00,61.9,27.5,30.56,North,0,0.0,0.0,27,0.00,CLR,,0.00,WeatherDisplay:10.37,2013-05-21 01:25:00,
2013-05-20 17:30:00,61.7,26.4,30.56,North,0,0.0,0.0,26,0.00,CLR,,0.00,WeatherDisplay:10.37,2013-05-21 01:30:00,
2013-05-20 17:40:00,62.4,31.4,30.55,North,0,0.0,0.0,31,0.00,CLR,,0.00,WeatherDisplay:10.37,2013-05-21 01:40:00,
2013-05-20 17:45:00,63.1,29.5,30.55,North,0,0.0,0.0,28,0.00,CLR,,0.00,WeatherDisplay:10.37,2013-05-21 01:45:00,
2013-05-20 17:55:00,62.2,27.8,30.55,North,0,3.0,0.0,27,0.00,CLR,,0.00,WeatherDisplay:10.37,2013-05-21 01:55:00,
2013-05-20 18:00:00,62.1,28.6,30.54,North,0,0.0,0.0,28,0.00,CLR,,0.00,WeatherDisplay:10.37,2013-05-21 02:00:00,
2013-05-20 18:05:00,61.8,26.5,30.55,North,0,0.0,0.0,26,0.00,CLR,,0.00,WeatherDisplay:10.37,2013-05-21 02:05:00,
2013-05-20 18:10:00,61.3,27.9,30.54,North,0,0.0,0.0,28,0.00,CLR,,0.00,WeatherDisplay:10.37,2013-05-21 02:10:00,
2013-05-20 18:15:00,61.3,26.1,30.54,North,0,0.0,0.0,26,0.00,CLR,,0.00,WeatherDisplay:10.37,2013-05-21 02:15:00,
2013-05-20 18:25:00,61.4,26.2,30.54,North,0,0.0,0.0,26,0.00,CLR,,0.00,WeatherDisplay:10.37,2013-05-21 02:25:00,
2013-05-20 18:30:00,61.5,27.2,30.54,North,0,0.0,0.0,27,0.00,CLR,,0.00,WeatherDisplay:10.37,2013-05-21 02:30:00,
2013-05-20 18:35:00,61.9,28.4,30.54,North,0,0.0,0.0,28,0.00,CLR,,0.00,WeatherDisplay:10.37,2013-05-21 02:35:00,
2013-05-20 18:40:00,61.3,26.1,30.54,North,0,0.0,0.0,26,0.00,CLR,,0.00,WeatherDisplay:10.37,2013-05-21 02:40:00,
2013-05-20 18:45:00,61.1,35.2,30.53,North,0,0.0,0.0,38,0.00,CLR,,0.00,WeatherDisplay:10.37,2013-05-21 02:45:00,
2013-05-20 18:50:00,59.7,24.7,30.53,North,0,0.0,0.0,26,0.00,CLR,,0.00,WeatherDisplay:10.37,2013-05-21 02:50:00,
2013-05-20 18:55:00,58.8,23.0,30.53,North,0,0.0,0.0,25,0.00,CLR,,0.00,WeatherDisplay:10.37,2013-05-21 02:55:00,
2013-05-20 19:00:00,58.8,23.0,30.53,North,0,0.0,0.0,25,0.00,CLR,,0.00,WeatherDisplay:10.37,2013-05-21 03:00:00,
2013-05-20 19:10:00,57.7,21.1,30.53,North,0,0.0,0.0,24,0.00,CLR,,0.00,WeatherDisplay:10.37,2013-05-21 03:10:00,
2013-05-20 19:15:00,57.0,21.5,30.52,North,0,0.0,0.0,25,0.00,CLR,,0.00,WeatherDisplay:10.37,2013-05-21 03:15:00,
2013-05-20 19:25:00,56.1,25.9,30.52,North,0,0.0,0.0,31,0.00,CLR,,0.00,WeatherDisplay:10.37,2013-05-21 03:25:00,
2013-05-20 19:30:00,56.0,19.7,30.52,North,0,0.0,0.0,24,0.00,CLR,,0.00,WeatherDisplay:10.37,2013-05-21 03:30:00,
2013-05-20 19:35:00,55.9,20.6,30.52,North,0,0.0,0.0,25,0.00,CLR,,0.00,WeatherDisplay:10.37,2013-05-21 03:35:00,
2013-05-20 19:40:00,55.9,21.5,30.52,North,0,0.0,0.0,26,0.00,CLR,,0.00,WeatherDisplay:10.37,2013-05-21 03:40:00,
2013-05-20 19:50:00,55.5,22.0,30.52,North,0,0.0,0.0,27,0.00,CLR,,0.00,WeatherDisplay:10.37,2013-05-21 03:50:00,
2013-05-20 19:55:00,55.3,21.0,30.52,North,0,0.0,0.0,26,0.00,CLR,,0.00,WeatherDisplay:10.37,2013-05-21 03:55:00,
2013-05-20 20:00:00,55.2,21.8,30.52,North,0,0.0,0.0,27,0.00,CLR,,0.00,WeatherDisplay:10.37,2013-05-21 04:00:00,
2013-05-20 20:05:00,55.2,21.8,30.52,North,0,0.0,0.0,27,0.00,CLR,,0.00,WeatherDisplay:10.37,2013-05-21 04:05:00,
2013-05-20 20:10:00,54.3,21.0,30.52,North,0,0.0,0.0,27,0.00,CLR,,0.00,WeatherDisplay:10.37,2013-05-21 04:10:00,
2013-05-20 20:15:00,53.6,21.2,30.52,North,0,0.0,0.0,28,0.00,CLR,,0.00,WeatherDisplay:10.37,2013-05-21 04:15:00,
2013-05-20 20:25:00,53.1,20.8,30.51,North,0,0.0,0.0,28,0.00,CLR,,0.00,WeatherDisplay:10.37,2013-05-21 04:25:00,
2013-05-20 20:30:00,53.0,18.9,30.51,North,0,0.0,0.0,26,0.00,CLR,,0.00,WeatherDisplay:10.37,2013-05-21 04:30:00,
2013-05-20 20:40:00,52.9,18.9,30.51,North,0,0.0,0.0,26,0.00,CLR,,0.00,WeatherDisplay:10.37,2013-05-21 04:40:00,
2013-05-20 20:45:00,52.9,19.8,30.51,North,0,0.0,0.0,27,0.00,CLR,,0.00,WeatherDisplay:10.37,2013-05-21 04:45:00,
2013-05-20 20:50:00,52.7,17.8,30.51,North,0,0.0,0.0,25,0.00,CLR,,0.00,WeatherDisplay:10.37,2013-05-21 04:50:00,
2013-05-20 20:55:00,52.5,18.6,30.51,North,0,0.0,0.0,26,0.00,CLR,,0.00,WeatherDisplay:10.37,2013-05-21 04:55:00,
2013-05-20 21:00:00,52.3,19.3,30.50,North,0,0.0,0.0,27,0.00,CLR,,0.00,WeatherDisplay:10.37,2013-05-21 05:00:00,
2013-05-20 21:05:00,52.0,18.1,30.51,North,0,0.0,0.0,26,0.00,CLR,,0.00,WeatherDisplay:10.37,2013-05-21 05:05:00,
2013-05-20 21:10:00,51.4,17.6,30.51,North,0,0.0,0.0,26,0.00,CLR,,0.00,WeatherDisplay:10.37,2013-05-21 05:10:00,
2013-05-20 21:15:00,50.7,30.1,30.51,North,0,0.0,0.0,45,0.00,CLR,,0.00,WeatherDisplay:10.37,2013-05-21 05:15:00,
2013-05-20 21:25:00,49.6,23.7,30.50,North,0,0.0,0.0,36,0.00,CLR,,0.00,WeatherDisplay:10.37,2013-05-21 05:25:00,
2013-05-20 21:30:00,49.2,24.0,30.50,North,0,0.0,0.0,37,0.00,CLR,,0.00,WeatherDisplay:10.37,2013-05-21 05:30:00,
2013-05-20 21:40:00,49.1,34.5,30.50,North,0,0.0,0.0,57,0.00,CLR,,0.00,WeatherDisplay:10.37,2013-05-21 05:40:00,
2013-05-20 21:45:00,49.3,27.7,30.50,North,0,0.0,0.0,43,0.00,CLR,,0.00,WeatherDisplay:10.37,2013-05-21 05:45:00,
2013-05-20 21:55:00,48.9,32.5,30.50,North,0,0.0,0.0,53,0.00,CLR,,0.00,WeatherDisplay:10.37,2013-05-21 05:55:00,
2013-05-20 22:00:00,48.4,26.9,30.50,North,0,0.0,0.0,43,0.00,CLR,,0.00,WeatherDisplay:10.37,2013-05-21 06:00:00,
2013-05-20 22:05:00,47.5,27.7,30.50,North,0,0.0,0.0,46,0.00,CLR,,0.00,WeatherDisplay:10.37,2013-05-21 06:05:00,
2013-05-20 22:10:00,46.8,26.6,30.50,North,0,0.0,0.0,45,0.00,CLR,,0.00,WeatherDisplay:10.37,2013-05-21 06:10:00,
2013-05-20 22:15:00,46.2,30.0,30.50,North,0,0.0,0.0,53,0.00,CLR,,0.00,WeatherDisplay:10.37,2013-05-21 06:15:00,
2013-05-20 22:20:00,45.7,26.1,30.50,North,0,0.0,0.0,46,0.00,CLR,,0.00,WeatherDisplay:10.37,2013-05-21 06:20:00,
2013-05-20 22:25:00,45.3,28.2,30.50,North,0,0.0,0.0,51,0.00,CLR,,0.00,WeatherDisplay:10.37,2013-05-21 06:25:00,
2013-05-20 22:30:00,45.0,24.3,30.50,North,0,0.0,0.0,44,0.00,CLR,,0.00,WeatherDisplay:10.37,2013-05-21 06:30:00,
2013-05-20 22:35:00,44.8,25.8,30.50,North,0,0.0,0.0,47,0.00,CLR,,0.00,WeatherDisplay:10.37,2013-05-21 06:35:00,
2013-05-20 22:40:00,44.6,24.0,30.50,North,0,0.0,0.0,44,0.00,CLR,,0.00,WeatherDisplay:10.37,2013-05-21 06:40:00,
2013-05-20 22:45:00,44.6,25.6,30.50,North,0,0.0,0.0,47,0.00,CLR,,0.00,WeatherDisplay:10.37,2013-05-21 06:45:00,
2013-05-20 22:50:00,44.4,23.8,30.50,North,0,0.0,0.0,44,0.00,CLR,,0.00,WeatherDisplay:10.37,2013-05-21 06:50:00,
2013-05-20 22:55:00,44.2,24.7,30.50,North,0,0.0,0.0,46,0.00,CLR,,0.00,WeatherDisplay:10.37,2013-05-21 06:55:00,
2013-05-20 23:00:00,44.1,25.6,30.50,North,0,0.0,0.0,48,0.00,CLR,,0.00,WeatherDisplay:10.37,2013-05-21 07:00:00,
2013-05-20 23:10:00,43.5,24.6,30.50,North,0,0.0,0.0,47,0.00,CLR,,0.00,WeatherDisplay:10.37,2013-05-21 07:10:00,
2013-05-20 23:15:00,43.4,22.9,30.50,North,0,0.0,0.0,44,0.00,CLR,,0.00,WeatherDisplay:10.37,2013-05-21 07:15:00,
2013-05-20 23:25:00,42.5,21.6,30.50,North,0,0.0,0.0,43,0.00,CLR,,0.00,WeatherDisplay:10.37,2013-05-21 07:25:00,
2013-05-20 23:30:00,41.7,20.8,30.50,North,0,0.0,0.0,43,0.00,CLR,,0.00,WeatherDisplay:10.37,2013-05-21 07:30:00,
2013-05-20 23:40:00,40.8,22.6,30.50,North,0,0.0,0.0,48,0.00,CLR,,0.00,WeatherDisplay:10.37,2013-05-21 07:40:00,
2013-05-20 23:45:00,40.6,22.9,30.50,North,0,0.0,0.0,49,0.00,CLR,,0.00,WeatherDisplay:10.37,2013-05-21 07:45:00,
2013-05-20 23:55:00,41.0,20.2,30.50,North,0,0.0,0.0,43,0.00,CLR,,0.00,WeatherDisplay:10.37,2013-05-21 07:55:00,